createdAt,value
2019-02-16T00:02:08.139Z,102257.69
2019-02-16T00:06:13.500Z,102256.39
2019-02-16T00:10:18.866Z,102259.84
2019-02-16T00:14:24.228Z,102259.51
2019-02-16T00:18:29.879Z,102262.86
2019-02-16T00:22:35.586Z,102256.59
2019-02-16T00:26:40.849Z,102264.67
2019-02-16T00:30:46.448Z,102264.39
2019-02-16T00:34:51.860Z,102258.86
2019-02-16T00:38:57.373Z,102267.91
2019-02-16T00:43:02.929Z,102257.11
2019-02-16T00:47:08.370Z,102258.02
2019-02-16T00:51:14.163Z,102249.40
2019-02-16T00:55:20.496Z,102255.23
2019-02-16T00:59:27.828Z,102249.14
2019-02-16T01:03:33.085Z,102245.39
2019-02-16T01:07:38.358Z,102239.11
2019-02-16T01:11:43.728Z,102237.03
2019-02-16T01:15:49.082Z,102237.17
2019-02-16T01:19:54.784Z,102238.39
2019-02-16T01:24:00.149Z,102232.91
2019-02-16T01:28:05.495Z,102239.23
2019-02-16T01:32:11.012Z,102235.34
2019-02-16T01:36:16.460Z,102234.30
2019-02-16T01:40:22.033Z,102227.38
2019-02-16T01:44:27.850Z,102221.97
2019-02-16T01:48:33.227Z,102215.56
2019-02-16T01:52:38.667Z,102208.27
2019-02-16T01:56:44.115Z,102211.86
2019-02-16T02:00:49.579Z,102197.45
2019-02-16T02:04:54.894Z,102200.83
2019-02-16T02:09:00.377Z,102199.20
2019-02-16T02:13:05.850Z,102195.95
2019-02-16T02:17:11.337Z,102192.14
2019-02-16T02:21:17.086Z,102202.66
2019-02-16T02:25:22.464Z,102203.86
2019-02-16T02:29:28.169Z,102203.23
2019-02-16T02:33:33.614Z,102193.19
2019-02-16T02:37:38.985Z,102195.45
2019-02-16T02:41:44.391Z,102202.28
2019-02-16T02:45:49.588Z,102204.55
2019-02-16T02:49:55.042Z,102205.16
2019-02-16T02:54:00.584Z,102200.95
2019-02-16T02:58:05.973Z,102200.66
2019-02-16T03:02:11.321Z,102196.33
2019-02-16T03:06:16.690Z,102186.88
2019-02-16T03:10:22.384Z,102204.94
2019-02-16T03:14:27.783Z,102195.82
2019-02-16T03:18:33.098Z,102182.33
2019-02-16T03:23:19.928Z,102175.95
2019-02-16T03:28:32.246Z,102176.98
2019-02-16T03:33:24.837Z,102179.42
2019-02-16T03:38:00.442Z,102177.71
2019-02-16T03:42:06.482Z,102181.08
2019-02-16T03:46:12.023Z,102176.97
2019-02-16T03:50:17.916Z,102167.95
2019-02-16T03:54:23.430Z,102173.84
2019-02-16T03:58:30.217Z,102166.81
2019-02-16T04:02:35.569Z,102162.19
2019-02-16T04:06:40.967Z,102164.88
2019-02-16T04:10:46.299Z,102176.08
2019-02-16T04:14:51.673Z,102169.98
2019-02-16T04:18:57.304Z,102166.26
2019-02-16T04:23:02.778Z,102174.77
2019-02-16T04:27:08.216Z,102157.62
2019-02-16T04:31:13.571Z,102159.04
2019-02-16T04:35:18.969Z,102162.30
2019-02-16T04:39:24.697Z,102160.96
2019-02-16T04:43:30.146Z,102151.42
2019-02-16T04:47:35.818Z,102156.88
2019-02-16T04:51:41.450Z,102153.92
2019-02-16T04:55:47.078Z,102149.72
2019-02-16T04:59:52.569Z,102144.14
2019-02-16T05:03:57.851Z,102135.29
2019-02-16T05:08:03.148Z,102133.94
2019-02-16T05:12:08.466Z,102132.51
2019-02-16T05:16:13.948Z,102138.18
2019-02-16T05:20:19.293Z,102139.61
2019-02-16T05:24:24.586Z,102149.16
2019-02-16T05:28:29.986Z,102149.55
2019-02-16T05:32:35.612Z,102152.53
2019-02-16T05:36:41.040Z,102151.24
2019-02-16T05:40:46.768Z,102150.86
2019-02-16T05:44:52.047Z,102151.74
2019-02-16T05:48:57.497Z,102144.77
2019-02-16T05:53:02.876Z,102151.02
2019-02-16T05:57:08.202Z,102154.03
2019-02-16T06:01:13.654Z,102153.69
2019-02-16T06:05:18.907Z,102147.72
2019-02-16T06:09:24.345Z,102155.98
2019-02-16T06:13:29.773Z,102149.52
2019-02-16T06:17:35.145Z,102145.70
2019-02-16T06:21:40.631Z,102155.41
2019-02-16T06:25:45.988Z,102152.03
2019-02-16T06:29:53.477Z,102155.39
2019-02-16T06:33:58.929Z,102170.17
2019-02-16T06:38:04.651Z,102177.28
2019-02-16T06:42:09.933Z,102169.83
2019-02-16T06:46:15.269Z,102163.14
2019-02-16T06:50:20.723Z,102173.50
2019-02-16T06:54:26.090Z,102176.28
2019-02-16T06:58:31.553Z,102180.14
2019-02-16T07:02:37.129Z,102180.05
2019-02-16T07:06:47.020Z,102183.95
2019-02-16T07:10:52.883Z,102187.45
2019-02-16T07:14:58.175Z,102192.37
2019-02-16T07:19:28.833Z,102186.28
2019-02-16T07:23:34.480Z,102194.64
2019-02-16T07:27:39.981Z,102200.05
2019-02-16T07:31:45.751Z,102210.81
2019-02-16T07:35:51.335Z,102222.53
2019-02-16T07:39:56.595Z,102211.75
2019-02-16T07:44:23.726Z,102212.48
2019-02-16T07:48:37.327Z,102227.72
2019-02-16T07:52:58.339Z,102220.80
2019-02-16T07:57:19.367Z,102219.95
2019-02-16T08:01:29.852Z,102221.20
2019-02-16T08:05:43.255Z,102220.81
2019-02-16T08:10:06.778Z,102227.73
2019-02-16T08:14:19.398Z,102229.46
2019-02-16T08:18:30.980Z,102223.14
2019-02-16T08:22:55.364Z,102225.92
2019-02-16T08:27:22.672Z,102227.13
2019-02-16T08:31:40.543Z,102223.40
2019-02-16T08:36:17.540Z,102220.73
2019-02-16T08:40:57.462Z,102226.06
2019-02-16T08:45:09.346Z,102226.38
2019-02-16T08:49:24.950Z,102219.05
2019-02-16T08:53:50.176Z,102214.78
2019-02-16T08:58:12.194Z,102217.70
2019-02-16T09:02:45.526Z,102218.79
2019-02-16T09:07:21.874Z,102221.78
2019-02-16T09:11:45.315Z,102216.98
2019-02-16T09:15:56.564Z,102206.88
2019-02-16T09:20:26.879Z,102206.75
2019-02-16T09:24:42.265Z,102199.81
2019-02-16T09:29:05.378Z,102196.48
2019-02-16T09:33:28.836Z,102207.52
2019-02-16T09:37:42.766Z,102201.46
2019-02-16T09:41:58.971Z,102200.97
2019-02-16T09:46:22.190Z,102211.20
2019-02-16T09:50:42.953Z,102218.52
2019-02-16T09:55:10.269Z,102215.83
2019-02-16T09:59:28.675Z,102207.64
2019-02-16T10:03:43.869Z,102217.80
2019-02-16T10:08:15.732Z,102214.09
2019-02-16T10:12:29.193Z,102222.80
2019-02-16T10:16:59.443Z,102221.86
2019-02-16T10:21:22.525Z,102222.58
2019-02-16T10:25:56.152Z,102231.91
2019-02-16T10:30:11.487Z,102235.29
2019-02-16T10:34:27.329Z,102235.66
2019-02-16T10:38:40.484Z,102225.94
2019-02-16T10:43:16.805Z,102218.61
2019-02-16T10:47:44.140Z,102224.32
2019-02-16T10:51:55.783Z,102219.16
2019-02-16T10:56:26.019Z,102216.09
2019-02-16T11:00:49.998Z,102205.70
2019-02-16T11:05:13.847Z,102211.78
2019-02-16T11:09:38.234Z,102210.49
2019-02-16T11:14:05.537Z,102208.24
2019-02-16T11:18:23.294Z,102201.62
2019-02-16T11:22:44.073Z,102190.98
2019-02-16T11:27:08.744Z,102192.09
2019-02-16T11:31:25.007Z,102193.39
2019-02-16T11:35:51.963Z,102193.09
2019-02-16T11:40:12.096Z,102190.90
2019-02-16T11:44:35.193Z,102187.54
2019-02-16T11:49:02.610Z,102183.09
2019-02-16T11:53:41.992Z,102180.60
2019-02-16T11:58:06.891Z,102181.69
2019-02-16T12:02:40.202Z,102176.46
2019-02-16T12:07:04.507Z,102178.59
2019-02-16T12:11:21.993Z,102167.69
2019-02-16T12:15:45.342Z,102171.45
2019-02-16T12:20:11.089Z,102171.88
2019-02-16T12:24:38.238Z,102159.14
2019-02-16T12:28:57.922Z,102151.31
2019-02-16T12:33:20.968Z,102140.68
2019-02-16T12:37:37.646Z,102133.64
2019-02-16T12:42:01.043Z,102130.20
2019-02-16T12:46:37.483Z,102145.50
2019-02-16T12:51:00.423Z,102148.17
2019-02-16T12:55:23.945Z,102150.94
2019-02-16T12:59:47.018Z,102143.55
2019-02-16T13:04:06.851Z,102137.67
2019-02-16T13:08:37.153Z,102130.21
2019-02-16T13:13:01.739Z,102129.44
2019-02-16T13:17:19.874Z,102116.05
2019-02-16T13:21:36.128Z,102107.80
2019-02-16T13:26:00.139Z,102117.93
2019-02-16T13:30:27.365Z,102118.67
2019-02-16T13:34:54.456Z,102121.59
2019-02-16T13:39:30.757Z,102117.26
2019-02-16T13:44:10.369Z,102121.98
2019-02-16T13:48:27.015Z,102115.44
2019-02-16T13:52:47.538Z,102107.06
2019-02-16T13:57:09.028Z,102112.92
2019-02-16T14:01:31.334Z,102111.43
2019-02-16T14:05:42.804Z,102105.76
2019-02-16T14:10:05.908Z,102095.52
2019-02-16T14:14:30.070Z,102098.95
2019-02-16T14:18:35.712Z,102097.31
2019-02-16T14:22:41.056Z,102103.35
2019-02-16T14:26:46.513Z,102097.63
2019-02-16T14:30:51.900Z,102099.13
2019-02-16T14:34:57.368Z,102096.28
2019-02-16T14:39:09.824Z,102100.27
2019-02-16T14:43:15.114Z,102092.05
2019-02-16T14:47:24.108Z,102105.08
2019-02-16T14:51:29.985Z,102097.02
2019-02-16T14:55:35.755Z,102096.17
2019-02-16T14:59:41.012Z,102100.14
2019-02-16T15:03:46.446Z,102090.09
2019-02-16T15:07:52.152Z,102094.86
2019-02-16T15:11:57.986Z,102085.06
2019-02-16T15:16:03.434Z,102081.19
2019-02-16T15:20:11.236Z,102088.17
2019-02-16T15:24:16.617Z,102087.31
2019-02-16T15:28:22.058Z,102081.60
2019-02-16T15:32:27.257Z,102085.81
2019-02-16T15:36:32.634Z,102086.27
2019-02-16T15:40:38.073Z,102077.72
2019-02-16T15:44:43.470Z,102080.11
2019-02-16T15:48:48.859Z,102074.12
2019-02-16T15:52:54.139Z,102075.91
2019-02-16T15:56:59.701Z,102071.78
2019-02-16T16:01:05.186Z,102066.24
2019-02-16T16:05:10.611Z,102063.52
2019-02-16T16:09:34.559Z,102060.48
2019-02-16T16:14:02.047Z,102063.14
2019-02-16T16:18:41.638Z,102066.55
2019-02-16T16:23:04.895Z,102071.38
2019-02-16T16:27:32.079Z,102063.23
2019-02-16T16:31:48.381Z,102070.36
2019-02-16T16:36:06.228Z,102059.45
2019-02-16T16:40:22.862Z,102062.11
2019-02-16T16:44:50.321Z,102060.80
2019-02-16T16:49:03.205Z,102059.38
2019-02-16T16:53:24.166Z,102062.69
2019-02-16T16:57:35.038Z,102070.16
2019-02-16T17:02:00.375Z,102065.16
2019-02-16T17:06:17.540Z,102065.82
2019-02-16T17:10:41.234Z,102059.89
2019-02-16T17:15:05.557Z,102066.75
2019-02-16T17:19:32.587Z,102066.50
2019-02-16T17:23:45.139Z,102073.46
2019-02-16T17:28:03.988Z,102070.91
2019-02-16T17:32:17.868Z,102075.15
2019-02-16T17:36:42.205Z,102067.03
2019-02-16T17:41:21.630Z,102062.09
2019-02-16T17:45:44.560Z,102067.91
2019-02-16T17:50:14.924Z,102067.52
2019-02-16T17:54:49.689Z,102074.72
2019-02-16T17:59:26.365Z,102079.20
2019-02-16T18:03:44.207Z,102085.77
2019-02-16T18:08:17.989Z,102090.27
2019-02-16T18:12:37.437Z,102083.61
2019-02-16T18:17:00.471Z,102079.98
2019-02-16T18:21:24.734Z,102077.05
2019-02-16T18:25:49.158Z,102081.72
2019-02-16T18:30:25.483Z,102085.48
2019-02-16T18:34:39.242Z,102083.38
2019-02-16T18:38:50.674Z,102089.02
2019-02-16T18:43:15.176Z,102088.40
2019-02-16T18:47:27.521Z,102089.36
2019-02-16T18:51:52.183Z,102085.95
2019-02-16T18:56:19.431Z,102086.34
2019-02-16T19:00:31.084Z,102079.66
2019-02-16T19:04:51.796Z,102086.19
2019-02-16T19:09:04.061Z,102077.94
2019-02-16T19:13:17.293Z,102083.41
2019-02-16T19:17:34.764Z,102089.19
2019-02-16T19:21:59.125Z,102085.80
2019-02-16T19:26:22.478Z,102086.00
2019-02-16T19:30:35.477Z,102085.48
2019-02-16T19:34:56.257Z,102083.95
2019-02-16T19:39:26.354Z,102083.39
2019-02-16T19:43:56.766Z,102091.49
2019-02-16T19:48:12.843Z,102083.02
2019-02-16T19:52:28.826Z,102087.31
2019-02-16T19:56:42.817Z,102085.63
2019-02-16T20:00:58.192Z,102090.69
2019-02-16T20:05:21.121Z,102079.88
2019-02-16T20:09:32.451Z,102075.33
2019-02-16T20:13:50.787Z,102078.83
2019-02-16T20:18:05.660Z,102072.42
2019-02-16T20:22:28.932Z,102070.97
2019-02-16T20:27:07.608Z,102072.24
2019-02-16T20:31:40.865Z,102072.50
2019-02-16T20:36:07.947Z,102070.78
2019-02-16T20:40:31.042Z,102067.58
2019-02-16T20:44:45.331Z,102064.13
2019-02-16T20:49:10.580Z,102061.66
2019-02-16T20:53:44.234Z,102069.86
2019-02-16T20:57:57.251Z,102068.02
2019-02-16T21:02:24.435Z,102072.23
2019-02-16T21:06:52.683Z,102071.85
2019-02-16T21:11:18.138Z,102070.36
2019-02-16T21:15:34.577Z,102067.03
2019-02-16T21:20:01.848Z,102059.19
2019-02-16T21:24:24.700Z,102057.97
2019-02-16T21:28:54.760Z,102053.50
2019-02-16T21:33:22.158Z,102057.57
2019-02-16T21:37:46.406Z,102061.45
2019-02-16T21:42:19.678Z,102066.00
2019-02-16T21:46:43.926Z,102066.39
2019-02-16T21:51:14.515Z,102069.28
2019-02-16T21:55:43.197Z,102067.69
2019-02-16T22:00:03.482Z,102075.04
2019-02-16T22:04:30.783Z,102064.61
2019-02-16T22:08:43.063Z,102056.13
2019-02-16T22:13:05.964Z,102063.99
2019-02-16T22:17:11.405Z,102070.63
2019-02-16T22:21:16.776Z,102071.67
2019-02-16T22:25:22.025Z,102071.72
2019-02-16T22:29:27.527Z,102065.14
2019-02-16T22:33:33.164Z,102072.41
2019-02-16T22:37:38.887Z,102076.82
2019-02-16T22:41:44.226Z,102073.25
2019-02-16T22:45:49.509Z,102070.92
2019-02-16T22:49:55.281Z,102071.89
2019-02-16T22:54:01.060Z,102068.29
2019-02-16T22:58:06.386Z,102077.11
2019-02-16T23:02:13.015Z,102077.85
2019-02-16T23:06:18.484Z,102079.66
2019-02-16T23:10:23.969Z,102078.36
2019-02-16T23:14:30.022Z,102080.41
2019-02-16T23:18:35.447Z,102072.02
2019-02-16T23:22:40.865Z,102075.02
2019-02-16T23:26:46.284Z,102065.66
2019-02-16T23:30:51.810Z,102067.63
2019-02-16T23:34:57.482Z,102064.36
2019-02-16T23:39:04.794Z,102064.83
2019-02-16T23:43:10.190Z,102059.16
2019-02-16T23:47:15.710Z,102051.30
2019-02-16T23:51:21.206Z,102055.84
2019-02-16T23:55:27.190Z,102052.88
2019-02-16T23:59:32.509Z,102056.95
